createdAt,value
2018-04-14T00:01:59.704Z,16.07
2018-04-14T00:04:27.269Z,20.00
2018-04-14T00:06:54.832Z,18.23
2018-04-14T00:09:22.404Z,18.10
2018-04-14T00:11:49.964Z,18.83
2018-04-14T00:14:17.580Z,19.70
2018-04-14T00:16:45.126Z,19.30
2018-04-14T00:19:12.857Z,16.87
2018-04-14T00:21:40.439Z,19.77
2018-04-14T00:24:08.010Z,18.03
2018-04-14T00:26:35.577Z,17.87
2018-04-14T00:29:03.328Z,19.43
2018-04-14T00:31:30.940Z,23.40
2018-04-14T00:33:58.500Z,17.50
2018-04-14T00:36:26.064Z,17.73
2018-04-14T00:38:53.900Z,17.77
2018-04-14T00:41:21.465Z,17.37
2018-04-14T00:43:49.037Z,17.33
2018-04-14T00:46:16.604Z,19.00
2018-04-14T00:48:44.473Z,18.10
2018-04-14T00:51:12.068Z,15.33
2018-04-14T00:53:47.651Z,21.30
2018-04-14T00:56:15.238Z,21.47
2018-04-14T00:58:42.963Z,18.37
2018-04-14T01:01:10.690Z,19.27
2018-04-14T01:03:38.410Z,18.77
2018-04-14T01:06:06.218Z,18.40
2018-04-14T01:08:33.780Z,16.40
2018-04-14T01:11:01.412Z,14.67
2018-04-14T01:13:29.061Z,15.97
2018-04-14T01:15:56.800Z,17.37
2018-04-14T01:18:24.361Z,20.43
2018-04-14T01:20:52.106Z,22.23
2018-04-14T01:23:19.823Z,19.47
2018-04-14T01:25:47.381Z,20.30
2018-04-14T01:28:14.978Z,23.17
2018-04-14T01:30:42.709Z,21.50
2018-04-14T01:33:10.280Z,21.50
2018-04-14T01:35:38.007Z,20.10
2018-04-14T01:38:05.602Z,21.90
2018-04-14T01:40:33.297Z,20.97
2018-04-14T01:43:01.100Z,21.43
2018-04-14T01:45:28.917Z,20.23
2018-04-14T01:47:56.476Z,19.20
2018-04-14T01:50:24.108Z,17.00
2018-04-14T01:52:51.709Z,19.80
2018-04-14T01:55:19.493Z,22.43
2018-04-14T01:57:47.309Z,19.03
2018-04-14T02:00:14.873Z,17.57
2018-04-14T02:02:42.436Z,18.63
2018-04-14T02:05:10.004Z,24.50
2018-04-14T02:07:37.780Z,20.63
2018-04-14T02:10:05.602Z,19.50
2018-04-14T02:12:33.422Z,23.30
2018-04-14T02:15:01.044Z,21.67
2018-04-14T02:17:28.626Z,20.63
2018-04-14T02:19:56.358Z,19.93
2018-04-14T02:22:24.090Z,22.70
2018-04-14T02:24:51.630Z,21.83
2018-04-14T02:27:19.245Z,18.23
2018-04-14T02:29:46.808Z,15.70
2018-04-14T02:32:14.369Z,19.03
2018-04-14T02:34:41.979Z,20.90
2018-04-14T02:37:09.606Z,20.13
2018-04-14T02:39:37.186Z,17.77
2018-04-14T02:42:04.780Z,20.37
2018-04-14T02:44:32.378Z,19.50
2018-04-14T02:47:00.674Z,18.80
2018-04-14T02:49:28.241Z,22.97
2018-04-14T02:51:55.816Z,19.83
2018-04-14T02:54:23.384Z,17.73
2018-04-14T02:56:50.956Z,23.80
2018-04-14T02:59:18.762Z,22.13
2018-04-14T03:01:46.580Z,22.23
2018-04-14T03:04:14.145Z,25.03
2018-04-14T03:06:41.713Z,22.90
2018-04-14T03:09:09.287Z,20.13
2018-04-14T03:11:36.848Z,21.10
2018-04-14T03:14:04.669Z,22.80
2018-04-14T03:16:32.232Z,23.63
2018-04-14T03:18:59.789Z,20.83
2018-04-14T03:21:27.499Z,21.10
2018-04-14T03:23:55.056Z,24.27
2018-04-14T03:26:22.649Z,23.30
2018-04-14T03:28:50.217Z,24.10
2018-04-14T03:31:17.856Z,22.97
2018-04-14T03:33:45.405Z,29.40
2018-04-14T03:36:13.130Z,25.33
2018-04-14T03:38:40.949Z,26.33
2018-04-14T03:41:08.498Z,24.60
2018-04-14T03:43:36.248Z,27.47
2018-04-14T03:46:03.896Z,26.33
2018-04-14T03:48:31.530Z,31.13
2018-04-14T03:50:59.100Z,30.97
2018-04-14T03:53:26.860Z,28.37
2018-04-14T03:55:54.436Z,26.33
2018-04-14T03:58:22.072Z,34.57
2018-04-14T04:00:49.653Z,34.43
2018-04-14T04:03:17.407Z,33.63
2018-04-14T04:05:45.039Z,31.80
2018-04-14T04:08:12.606Z,31.43
2018-04-14T04:10:40.176Z,26.83
2018-04-14T04:13:07.752Z,35.33
2018-04-14T04:15:35.522Z,28.60
2018-04-14T04:18:03.338Z,29.23
2018-04-14T04:20:42.723Z,33.00
2018-04-14T04:23:22.358Z,30.17
2018-04-14T04:25:49.921Z,27.00
2018-04-14T04:28:17.493Z,28.40
2018-04-14T04:30:45.211Z,38.27
2018-04-14T04:33:12.878Z,32.83
2018-04-14T04:35:40.536Z,27.90
2018-04-14T04:38:08.270Z,32.03
2018-04-14T04:40:35.835Z,29.13
2018-04-14T04:43:03.403Z,24.70
2018-04-14T04:45:30.981Z,25.53
2018-04-14T04:47:58.709Z,28.57
2018-04-14T04:50:26.343Z,27.37
2018-04-14T04:52:53.919Z,30.70
2018-04-14T04:55:21.485Z,24.47
2018-04-14T04:57:49.211Z,24.83
2018-04-14T05:00:16.775Z,41.13
2018-04-14T05:02:44.368Z,34.67
2018-04-14T05:05:12.047Z,38.23
2018-04-14T05:07:39.761Z,31.27
2018-04-14T05:10:07.600Z,29.63
2018-04-14T05:12:35.419Z,30.87
2018-04-14T05:15:02.998Z,29.63
2018-04-14T05:17:30.756Z,30.80
2018-04-14T05:19:58.343Z,35.13
2018-04-14T05:22:25.905Z,30.67
2018-04-14T05:24:53.584Z,28.80
2018-04-14T05:27:21.327Z,26.87
2018-04-14T05:29:49.047Z,25.10
2018-04-14T05:32:16.624Z,23.03
2018-04-14T05:34:44.385Z,29.47
2018-04-14T05:37:11.943Z,26.47
2018-04-14T05:39:39.481Z,28.37
2018-04-14T05:42:07.130Z,25.07
2018-04-14T05:44:34.704Z,19.67
2018-04-14T05:47:02.279Z,24.00
2018-04-14T05:49:29.859Z,26.83
2018-04-14T05:51:57.461Z,35.17
2018-04-14T05:54:25.032Z,24.27
2018-04-14T05:56:52.600Z,21.43
2018-04-14T05:59:20.212Z,20.37
2018-04-14T06:01:47.936Z,25.83
2018-04-14T06:04:15.678Z,23.30
2018-04-14T06:06:43.292Z,21.57
2018-04-14T06:09:10.959Z,18.23
2018-04-14T06:11:38.520Z,24.13
2018-04-14T06:14:06.269Z,21.97
2018-04-14T06:16:33.894Z,19.10
2018-04-14T06:19:01.473Z,23.23
2018-04-14T06:21:29.043Z,23.60
2018-04-14T06:23:56.841Z,29.90
2018-04-14T06:26:24.408Z,22.17
2018-04-14T06:28:52.148Z,23.27
2018-04-14T06:31:19.723Z,25.57
2018-04-14T06:33:47.373Z,29.57
2018-04-14T06:36:14.960Z,19.67
2018-04-14T06:38:42.533Z,20.17
2018-04-14T06:41:10.109Z,25.00
2018-04-14T06:43:37.669Z,22.60
2018-04-14T06:46:05.256Z,22.50
2018-04-14T06:48:33.022Z,22.23
2018-04-14T06:51:00.778Z,24.47
2018-04-14T06:53:28.458Z,27.50
2018-04-14T06:55:56.024Z,26.63
2018-04-14T06:58:23.629Z,20.83
2018-04-14T07:00:51.333Z,23.83
2018-04-14T07:03:19.130Z,27.03
2018-04-14T07:05:46.948Z,21.60
2018-04-14T07:08:14.767Z,18.27
2018-04-14T07:10:42.487Z,15.90
2018-04-14T07:13:10.048Z,19.90
2018-04-14T07:15:37.624Z,19.73
2018-04-14T07:18:05.441Z,20.37
2018-04-14T07:20:33.060Z,22.30
2018-04-14T07:23:00.638Z,18.73
2018-04-14T07:25:28.308Z,17.90
2018-04-14T07:27:55.864Z,13.63
2018-04-14T07:30:23.452Z,14.50
2018-04-14T07:32:51.248Z,12.43
2018-04-14T07:35:19.066Z,15.00
2018-04-14T07:37:46.885Z,13.97
2018-04-14T07:40:14.449Z,13.93
2018-04-14T07:42:42.322Z,15.63
2018-04-14T07:45:09.895Z,11.00
2018-04-14T07:47:37.460Z,15.13
2018-04-14T07:50:05.053Z,11.83
2018-04-14T07:52:32.621Z,17.73
2018-04-14T07:55:00.232Z,20.60
2018-04-14T07:57:27.773Z,12.37
2018-04-14T07:59:55.329Z,12.50
2018-04-14T08:02:22.897Z,12.07
2018-04-14T08:04:50.682Z,11.07
2018-04-14T08:07:18.297Z,14.37
2018-04-14T08:09:46.119Z,16.77
2018-04-14T08:12:13.694Z,12.10
2018-04-14T08:14:41.272Z,11.33
2018-04-14T08:17:08.863Z,12.63
2018-04-14T08:19:36.436Z,12.97
2018-04-14T08:22:04.210Z,12.97
2018-04-14T08:24:32.028Z,15.80
2018-04-14T08:26:59.624Z,9.90
2018-04-14T08:29:27.186Z,11.93
2018-04-14T08:31:54.759Z,14.50
2018-04-14T08:34:22.317Z,17.83
2018-04-14T08:36:50.118Z,14.97
2018-04-14T08:39:17.935Z,12.27
2018-04-14T08:41:45.639Z,13.87
2018-04-14T08:44:13.203Z,13.10
2018-04-14T08:46:40.765Z,13.77
2018-04-14T08:49:08.336Z,17.20
2018-04-14T08:51:36.130Z,13.13
2018-04-14T08:54:03.720Z,14.50
2018-04-14T08:56:31.289Z,13.27
2018-04-14T08:58:58.912Z,15.30
2018-04-14T09:01:26.577Z,16.50
2018-04-14T09:03:54.157Z,13.27
2018-04-14T09:06:21.724Z,14.43
2018-04-14T09:08:49.335Z,14.83
2018-04-14T09:11:16.916Z,17.00
2018-04-14T09:13:44.491Z,15.70
2018-04-14T09:16:12.303Z,12.70
2018-04-14T09:18:39.849Z,14.57
2018-04-14T09:21:07.640Z,15.33
2018-04-14T09:23:35.253Z,15.77
2018-04-14T09:26:02.829Z,17.13
2018-04-14T09:28:30.571Z,16.50
2018-04-14T09:30:58.282Z,16.30
2018-04-14T09:33:25.848Z,12.47
2018-04-14T09:35:53.427Z,15.63
2018-04-14T09:38:21.168Z,13.17
2018-04-14T09:40:48.886Z,16.00
2018-04-14T09:43:16.449Z,13.20
2018-04-14T09:45:44.105Z,13.60
2018-04-14T09:48:11.805Z,14.90
2018-04-14T09:50:39.363Z,14.13
2018-04-14T09:53:07.177Z,13.47
2018-04-14T09:55:34.736Z,15.17
2018-04-14T09:58:02.502Z,14.53
2018-04-14T10:00:30.333Z,13.87
2018-04-14T10:03:01.065Z,13.57
2018-04-14T10:05:28.639Z,11.63
2018-04-14T10:07:56.400Z,17.17
2018-04-14T10:10:24.278Z,17.53
2018-04-14T10:12:52.829Z,16.63
2018-04-14T10:15:20.656Z,18.23
2018-04-14T10:17:48.475Z,14.83
2018-04-14T10:20:16.085Z,17.00
2018-04-14T10:22:43.810Z,16.17
2018-04-14T10:25:11.373Z,19.57
2018-04-14T10:27:38.989Z,15.23
2018-04-14T10:30:06.651Z,14.23
2018-04-14T10:32:34.231Z,15.10
2018-04-14T10:35:02.002Z,20.30
2018-04-14T10:37:29.819Z,18.97
2018-04-14T10:39:57.397Z,13.63
2018-04-14T10:42:24.969Z,16.77
2018-04-14T10:44:52.544Z,12.57
2018-04-14T10:47:20.291Z,15.77
2018-04-14T10:49:47.852Z,16.27
2018-04-14T10:52:15.391Z,16.43
2018-04-14T10:54:43.005Z,15.20
2018-04-14T10:57:10.732Z,13.37
2018-04-14T10:59:38.483Z,14.50
2018-04-14T11:02:06.053Z,14.27
2018-04-14T11:04:33.625Z,11.50
2018-04-14T11:07:01.437Z,10.30
2018-04-14T11:09:28.999Z,16.23
2018-04-14T11:11:56.838Z,11.13
2018-04-14T11:14:24.472Z,12.57
2018-04-14T11:16:52.089Z,16.90
2018-04-14T11:19:19.664Z,10.47
2018-04-14T11:21:47.276Z,17.43
2018-04-14T11:24:15.063Z,16.83
2018-04-14T11:26:42.693Z,18.57
2018-04-14T11:29:10.521Z,12.77
2018-04-14T11:31:38.109Z,11.27
2018-04-14T11:34:05.679Z,15.43
2018-04-14T11:36:33.443Z,14.43
2018-04-14T11:39:00.997Z,14.77
2018-04-14T11:41:28.790Z,10.20
2018-04-14T11:43:56.348Z,15.33
2018-04-14T11:46:24.098Z,13.00
2018-04-14T11:48:51.649Z,12.83
2018-04-14T11:51:19.219Z,11.83
2018-04-14T11:53:46.789Z,11.03
2018-04-14T11:56:14.598Z,15.30
2018-04-14T11:58:42.160Z,13.27
2018-04-14T12:01:09.934Z,13.17
2018-04-14T12:03:37.755Z,11.73
2018-04-14T12:06:05.326Z,11.90
2018-04-14T12:08:33.053Z,15.30
2018-04-14T12:11:00.769Z,12.83
2018-04-14T12:13:28.329Z,12.60
2018-04-14T12:15:55.949Z,10.73
2018-04-14T12:18:23.545Z,13.33
2018-04-14T12:20:51.113Z,12.63
2018-04-14T12:23:18.687Z,11.37
2018-04-14T12:25:46.246Z,13.07
2018-04-14T12:28:13.801Z,11.43
2018-04-14T12:30:41.361Z,13.33
2018-04-14T12:33:09.108Z,13.13
2018-04-14T12:35:36.692Z,13.83
2018-04-14T12:38:04.272Z,11.27
2018-04-14T12:40:31.836Z,12.60
2018-04-14T12:42:59.408Z,12.67
2018-04-14T12:45:27.024Z,14.90
2018-04-14T12:47:54.603Z,13.87
2018-04-14T12:50:22.588Z,12.37
2018-04-14T12:52:50.161Z,10.57
2018-04-14T12:55:17.930Z,12.97
2018-04-14T12:57:45.661Z,15.37
2018-04-14T13:00:13.261Z,15.53
2018-04-14T13:02:40.832Z,14.97
2018-04-14T13:05:08.517Z,12.87
2018-04-14T13:07:36.321Z,18.47
2018-04-14T13:10:04.005Z,15.23
2018-04-14T13:12:31.565Z,16.80
2018-04-14T13:14:59.158Z,13.53
2018-04-14T13:17:26.748Z,12.53
2018-04-14T13:19:54.308Z,15.90
2018-04-14T13:22:22.130Z,13.47
2018-04-14T13:24:49.701Z,15.30
2018-04-14T13:27:17.548Z,20.60
2018-04-14T13:29:45.199Z,14.60
2018-04-14T13:32:13.003Z,12.67
2018-04-14T13:34:40.820Z,10.97
2018-04-14T13:37:08.376Z,11.63
2018-04-14T13:39:35.953Z,10.77
2018-04-14T13:42:03.544Z,15.00
2018-04-14T13:44:31.394Z,11.63
2018-04-14T13:46:58.992Z,9.50
2018-04-14T13:49:26.729Z,12.33
2018-04-14T13:51:54.545Z,11.77
2018-04-14T13:54:22.367Z,12.50
2018-04-14T13:56:50.089Z,10.57
2018-04-14T13:59:17.648Z,11.50
2018-04-14T14:01:45.232Z,9.57
2018-04-14T14:04:13.039Z,13.17
2018-04-14T14:06:40.622Z,10.97
2018-04-14T14:09:08.233Z,13.37
2018-04-14T14:11:35.828Z,13.43
2018-04-14T14:14:03.713Z,12.40
2018-04-14T14:16:31.532Z,11.27
2018-04-14T14:18:59.092Z,14.03
2018-04-14T14:21:26.662Z,8.93
2018-04-14T14:23:54.245Z,14.60
2018-04-14T14:26:21.898Z,12.67
2018-04-14T14:28:49.722Z,13.20
2018-04-14T14:31:17.540Z,11.77
2018-04-14T14:33:45.112Z,13.60
2018-04-14T14:36:12.689Z,12.30
2018-04-14T14:38:40.695Z,9.47
2018-04-14T14:41:08.252Z,14.53
2018-04-14T14:43:35.824Z,11.97
2018-04-14T14:46:03.382Z,10.97
2018-04-14T14:48:31.030Z,14.13
2018-04-14T14:50:58.590Z,8.37
2018-04-14T14:53:26.142Z,11.43
2018-04-14T14:55:53.713Z,13.83
2018-04-14T14:58:21.273Z,16.10
2018-04-14T15:00:48.840Z,11.50
2018-04-14T15:03:16.425Z,13.77
2018-04-14T15:05:44.040Z,16.83
2018-04-14T15:08:11.600Z,12.87
2018-04-14T15:10:39.180Z,16.30
2018-04-14T15:13:06.748Z,15.43
2018-04-14T15:15:34.467Z,9.80
2018-04-14T15:18:02.281Z,11.60
2018-04-14T15:20:29.840Z,10.97
2018-04-14T15:22:57.464Z,15.97
2018-04-14T15:25:25.271Z,12.60
2018-04-14T15:27:53.054Z,12.83
2018-04-14T15:30:20.624Z,14.60
2018-04-14T15:32:48.288Z,17.03
2018-04-14T15:35:16.007Z,16.30
2018-04-14T15:37:43.825Z,16.93
2018-04-14T15:40:11.448Z,11.67
2018-04-14T15:42:39.021Z,13.97
2018-04-14T15:45:06.779Z,14.40
2018-04-14T15:47:34.602Z,10.10
2018-04-14T15:50:02.416Z,12.90
2018-04-14T15:52:30.020Z,19.40
2018-04-14T15:54:57.596Z,16.00
2018-04-14T15:57:25.377Z,14.33
2018-04-14T15:59:52.957Z,12.40
2018-04-14T16:02:20.807Z,17.20
2018-04-14T16:04:48.587Z,10.13
2018-04-14T16:07:16.444Z,12.43
2018-04-14T16:09:44.263Z,11.73
2018-04-14T16:12:11.983Z,14.03
2018-04-14T16:14:39.597Z,14.90
2018-04-14T16:17:07.535Z,11.67
2018-04-14T16:19:35.147Z,11.57
2018-04-14T16:22:02.724Z,11.20
2018-04-14T16:24:30.318Z,15.50
2018-04-14T16:26:58.067Z,15.97
2018-04-14T16:29:25.783Z,15.40
2018-04-14T16:31:53.630Z,16.20
2018-04-14T16:34:21.188Z,15.10
2018-04-14T16:36:48.745Z,14.17
2018-04-14T16:39:16.453Z,12.50
2018-04-14T16:41:44.170Z,16.13
2018-04-14T16:44:11.920Z,14.30
2018-04-14T16:46:39.481Z,17.70
2018-04-14T16:49:07.096Z,20.90
2018-04-14T16:51:34.685Z,23.00
2018-04-14T16:54:02.262Z,21.37
2018-04-14T16:56:29.837Z,15.77
2018-04-14T16:58:57.401Z,19.83
2018-04-14T17:01:25.145Z,21.83
2018-04-14T17:03:52.685Z,16.03
2018-04-14T17:06:20.482Z,19.03
2018-04-14T17:08:48.300Z,20.73
2018-04-14T17:11:15.897Z,23.97
2018-04-14T17:13:43.515Z,21.13
2018-04-14T17:16:11.081Z,18.83
2018-04-14T17:18:38.650Z,11.83
2018-04-14T17:21:06.389Z,15.37
2018-04-14T17:23:34.208Z,14.80
2018-04-14T17:26:01.840Z,11.43
2018-04-14T17:28:29.412Z,21.77
2018-04-14T17:30:56.984Z,21.77
2018-04-14T17:33:24.564Z,20.10
2018-04-14T17:35:52.177Z,22.57
2018-04-14T17:38:19.741Z,19.03
2018-04-14T17:40:47.373Z,14.27
2018-04-14T17:43:15.119Z,15.97
2018-04-14T17:45:42.690Z,16.93
2018-04-14T17:48:10.264Z,13.80
2018-04-14T17:50:37.970Z,21.17
2018-04-14T17:53:05.690Z,20.90
2018-04-14T17:55:33.334Z,17.73
2018-04-14T17:58:00.949Z,25.17
2018-04-14T18:00:28.780Z,19.20
2018-04-14T18:02:56.598Z,19.57
2018-04-14T18:05:24.420Z,25.03
2018-04-14T18:07:51.981Z,19.13
2018-04-14T18:10:19.604Z,20.13
2018-04-14T18:12:47.371Z,23.90
2018-04-14T18:15:15.190Z,23.50
2018-04-14T18:17:42.980Z,25.83
2018-04-14T18:20:10.573Z,19.60
2018-04-14T18:22:38.180Z,19.77
2018-04-14T18:25:05.744Z,29.20
2018-04-14T18:27:33.364Z,34.77
2018-04-14T18:30:00.933Z,27.17
2018-04-14T18:32:28.715Z,26.23
2018-04-14T18:34:56.326Z,16.67
2018-04-14T18:37:23.884Z,11.50
2018-04-14T18:39:51.437Z,15.00
2018-04-14T18:42:19.148Z,14.43
2018-04-14T18:44:46.893Z,11.27
2018-04-14T18:47:14.454Z,11.30
2018-04-14T18:49:42.085Z,13.60
2018-04-14T18:52:09.633Z,12.33
2018-04-14T18:54:37.197Z,14.07
2018-04-14T18:57:04.804Z,16.63
2018-04-14T18:59:32.679Z,11.87
2018-04-14T19:02:00.431Z,17.17
2018-04-14T19:04:28.010Z,13.60
2018-04-14T19:06:55.550Z,10.97
2018-04-14T19:09:23.126Z,11.67
2018-04-14T19:11:50.695Z,14.90
2018-04-14T19:14:18.521Z,21.13
2018-04-14T19:16:46.102Z,14.03
2018-04-14T19:19:13.660Z,14.40
2018-04-14T19:21:41.220Z,17.97
2018-04-14T19:24:08.788Z,20.43
2018-04-14T19:26:36.612Z,18.80
2018-04-14T19:29:04.166Z,11.40
2018-04-14T19:31:31.730Z,16.30
2018-04-14T19:33:59.293Z,16.70
2018-04-14T19:36:26.862Z,14.20
2018-04-14T19:38:54.602Z,17.10
2018-04-14T19:41:22.424Z,13.67
2018-04-14T19:43:50.130Z,22.43
2018-04-14T19:46:17.961Z,13.30
2018-04-14T19:48:45.654Z,19.47
2018-04-14T19:51:13.236Z,15.90
2018-04-14T19:53:41.013Z,15.27
2018-04-14T19:56:08.831Z,18.60
2018-04-14T19:58:36.392Z,19.47
2018-04-14T20:01:04.238Z,13.30
2018-04-14T20:03:31.807Z,19.20
2018-04-14T20:05:59.372Z,13.70
2018-04-14T20:08:27.091Z,15.33
2018-04-14T20:10:54.664Z,19.20
2018-04-14T20:13:22.257Z,19.77
2018-04-14T20:15:49.824Z,17.20
2018-04-14T20:18:17.441Z,15.93
2018-04-14T20:20:45.000Z,27.23
2018-04-14T20:23:12.608Z,18.33
2018-04-14T20:25:40.203Z,15.10
2018-04-14T20:28:07.965Z,17.47
2018-04-14T20:30:35.784Z,14.63
2018-04-14T20:33:03.321Z,13.93
2018-04-14T20:35:30.940Z,11.60
2018-04-14T20:37:58.513Z,15.13
2018-04-14T20:40:26.076Z,23.03
2018-04-14T20:42:53.668Z,18.60
2018-04-14T20:45:21.491Z,16.90
2018-04-14T20:47:49.309Z,19.37
2018-04-14T20:50:16.868Z,17.37
2018-04-14T20:52:44.487Z,21.83
2018-04-14T20:55:12.180Z,20.60
2018-04-14T20:57:39.749Z,17.23
2018-04-14T21:00:07.344Z,14.20
2018-04-14T21:02:34.966Z,14.80
2018-04-14T21:05:02.537Z,14.63
2018-04-14T21:07:30.106Z,19.30
2018-04-14T21:09:57.724Z,20.20
2018-04-14T21:12:25.451Z,16.83
2018-04-14T21:14:53.167Z,15.43
2018-04-14T21:17:20.926Z,18.47
2018-04-14T21:19:48.484Z,17.63
2018-04-14T21:22:16.095Z,17.00
2018-04-14T21:24:43.656Z,15.67
2018-04-14T21:27:11.266Z,17.63
2018-04-14T21:29:38.999Z,18.60
2018-04-14T21:32:06.645Z,17.63
2018-04-14T21:34:34.452Z,22.47
2018-04-14T21:37:02.275Z,19.57
2018-04-14T21:39:29.855Z,22.10
2018-04-14T21:41:57.421Z,20.37
2018-04-14T21:44:25.048Z,18.77
2018-04-14T21:46:52.846Z,20.43
2018-04-14T21:49:20.662Z,18.83
2018-04-14T21:51:48.281Z,23.33
2018-04-14T21:54:16.098Z,22.03
2018-04-14T21:56:43.917Z,18.80
2018-04-14T21:59:11.634Z,21.23
2018-04-14T22:01:39.273Z,17.37
2018-04-14T22:04:06.840Z,16.53
2018-04-14T22:06:34.393Z,19.60
2018-04-14T22:09:01.969Z,21.73
2018-04-14T22:11:29.528Z,17.63
2018-04-14T22:13:57.343Z,19.07
2018-04-14T22:16:24.905Z,15.80
2018-04-14T22:18:52.660Z,23.67
2018-04-14T22:21:20.370Z,18.87
2018-04-14T22:23:47.923Z,19.87
2018-04-14T22:26:15.519Z,21.10
2018-04-14T22:28:43.091Z,25.00
2018-04-14T22:31:10.666Z,20.77
2018-04-14T22:33:38.228Z,17.07
2018-04-14T22:36:05.839Z,19.60
2018-04-14T22:38:33.623Z,17.40
2018-04-14T22:41:01.342Z,19.53
2018-04-14T22:43:28.913Z,22.53
2018-04-14T22:45:56.479Z,17.70
2018-04-14T22:48:24.101Z,19.37
2018-04-14T22:50:51.709Z,18.40
2018-04-14T22:53:19.276Z,19.37
2018-04-14T22:55:46.849Z,15.80
2018-04-14T22:58:14.459Z,14.57
2018-04-14T23:00:42.075Z,15.40
2018-04-14T23:03:09.640Z,16.00
2018-04-14T23:05:37.196Z,15.37
2018-04-14T23:08:04.776Z,19.93
2018-04-14T23:10:32.556Z,13.07
2018-04-14T23:13:00.221Z,15.70
2018-04-14T23:15:27.993Z,13.70
2018-04-14T23:17:55.811Z,16.93
2018-04-14T23:20:23.360Z,18.10
2018-04-14T23:22:50.915Z,20.73
2018-04-14T23:25:18.470Z,22.80
2018-04-14T23:27:46.282Z,19.73
2018-04-14T23:30:14.061Z,19.07
2018-04-14T23:32:41.636Z,19.57
2018-04-14T23:35:09.251Z,18.20
2018-04-14T23:37:37.054Z,17.50
2018-04-14T23:40:04.624Z,20.27
2018-04-14T23:42:32.368Z,22.17
2018-04-14T23:44:59.925Z,21.20
2018-04-14T23:47:27.730Z,21.50
2018-04-14T23:49:55.292Z,14.67
2018-04-14T23:52:23.161Z,15.63
2018-04-14T23:54:50.728Z,21.33
2018-04-14T23:57:18.296Z,16.03
2018-04-14T23:59:46.116Z,13.97
